Página principal
METAR-TAF:

METAR-TAF

Aeroportos :

Xian, China

Aeroporto Internacional de Xi'an Xianyang

latitude: 34-26N, longitude: 108-45E, altura: 479 m

Observação actual do tempo

O boletim foi feito há 1 hora e 6 minutos, às 11:00 UTC
Vento 6 kt de nordeste
Temperatura
Pressão

METAR: ZLXY 121100Z 04003MPS 60N%0ZJRJUG

Hora: 20:06 (12:06 UTC)

Previsão

O boletim foi feito há 3 horas e 0 minutos, às 09:06 UTC
Previsão válida de 12 às 12 UTC a 13 às 12 UTC
Vento 8 kt de es-nordeste
Visibilidade: 3000 m
bruma

TAF: ZLXY 120906Z 1212/1312 06004MPS 3000 HZ NSC TX05/1307Z TNM03/23Z

Observações e previsões do tempo de mais de 4000 aeroportos (mensagens METAR e TAF).

As estações disponíveis são os pontos amarelos e vermelhos sobre o mapa.

Mova o rato sobre o mapa para ver o nome da estação.

Depois clique no ponto para visualizar as observações e previsões meteorológicas.

Para alterar o mapa : clique nos botões verdes com uma cruz preta para aumentar o zoom; no botão verde com uma pitada de zoom; ou nas setas verdes para mapas adjacentes.


METAR-TAF: